Map

Track Data

SID SEASON NUMBER BASIN SUBBASIN NAME ISO_TIME NATURE LAT LON WMO_WIND WMO_PRES WMO_AGENCY TRACK_TYPE DIST2LAND LANDFALL IFLAG USA_AGENCY USA_ATCF_ID USA_LAT USA_LON USA_RECORD USA_STATUS USA_WIND USA_PRES USA_SSHS USA_R34_NE USA_R34_SE USA_R34_SW USA_R34_NW USA_R50_NE USA_R50_SE USA_R50_SW USA_R50_NW USA_R64_NE USA_R64_SE USA_R64_SW USA_R64_NW USA_POCI USA_ROCI USA_RMW USA_EYE TOKYO_LAT TOKYO_LON TOKYO_GRADE TOKYO_WIND TOKYO_PRES TOKYO_R50_DIR TOKYO_R50_LONG TOKYO_R50_SHORT TOKYO_R30_DIR TOKYO_R30_LONG TOKYO_R30_SHORT TOKYO_LAND CMA_LAT CMA_LON CMA_CAT CMA_WIND CMA_PRES HKO_LAT HKO_LON HKO_CAT HKO_WIND HKO_PRES NEWDELHI_LAT NEWDELHI_LON NEWDELHI_GRADE NEWDELHI_WIND NEWDELHI_PRES NEWDELHI_CI NEWDELHI_DP NEWDELHI_POCI REUNION_LAT REUNION_LON REUNION_TYPE REUNION_WIND REUNION_PRES REUNION_TNUM REUNION_CI REUNION_RMW REUNION_R34_NE REUNION_R34_SE REUNION_R34_SW REUNION_R34_NW REUNION_R50_NE REUNION_R50_SE REUNION_R50_SW REUNION_R50_NW REUNION_R64_NE REUNION_R64_SE REUNION_R64_SW REUNION_R64_NW BOM_LAT BOM_LON BOM_TYPE BOM_WIND BOM_PRES BOM_TNUM BOM_CI BOM_RMW BOM_R34_NE BOM_R34_SE BOM_R34_SW BOM_R34_NW BOM_R50_NE BOM_R50_SE BOM_R50_SW BOM_R50_NW BOM_R64_NE BOM_R64_SE BOM_R64_SW BOM_R64_NW BOM_ROCI BOM_POCI BOM_EYE BOM_POS_METHOD BOM_PRES_METHOD NADI_LAT NADI_LON NADI_CAT NADI_WIND NADI_PRES WELLINGTON_LAT WELLINGTON_LON WELLINGTON_WIND WELLINGTON_PRES DS824_LAT DS824_LON DS824_STAGE DS824_WIND DS824_PRES TD9636_LAT TD9636_LON TD9636_STAGE TD9636_WIND TD9636_PRES TD9635_LAT TD9635_LON TD9635_WIND TD9635_PRES TD9635_ROCI NEUMANN_LAT NEUMANN_LON NEUMANN_CLASS NEUMANN_WIND NEUMANN_PRES MLC_LAT MLC_LON MLC_CLASS MLC_WIND MLC_PRES USA_GUST BOM_GUST BOM_GUST_PER REUNION_GUST REUNION_GUST_PER USA_SEAHGT USA_SEARAD_NE USA_SEARAD_SE USA_SEARAD_SW USA_SEARAD_NW STORM_SPEED STORM_DIR
1986302N05178 1986 105 WP MM HERBERT 1986-10-29 00:00:00 NR 5.00000 178.000 main 2308 2303 __________O___ -1 5.00000 178.000 0 13 250
1986302N05178 1986 105 WP MM HERBERT 1986-10-29 03:00:00 NR 4.76959 177.380 main 2318 2294 __________P___ -1 4.76959 177.380 0 13 250
1986302N05178 1986 105 WP MM HERBERT 1986-10-29 06:00:00 NR 4.54527 176.753 main 2287 2221 __________P___ -1 4.54527 176.753 0 13 251
1986302N05178 1986 105 WP MM HERBERT 1986-10-29 09:00:00 NR 4.33375 176.114 main 2213 2155 __________P___ -1 4.33375 176.114 0 14 253
1986302N05178 1986 105 WP MM HERBERT 1986-10-29 12:00:00 NR 4.14169 175.456 main 2148 2083 __________P___ -1 4.14169 175.456 0 14 255
1986302N05178 1986 105 WP MM HERBERT 1986-10-29 15:00:00 NR 3.97573 174.772 main 2083 2011 __________P___ -1 3.97573 174.772 0 14 258
1986302N05178 1986 105 WP MM HERBERT 1986-10-29 18:00:00 NR 3.84244 174.056 main 2011 1947 __________P___ -1 3.84244 174.056 0 15 261
1986302N05178 1986 105 WP MM HERBERT 1986-10-29 21:00:00 NR 3.74836 173.301 main 1939 1877 __________P___ -1 3.74836 173.301 0 16 265
1986302N05178 1986 105 WP MM HERBERT 1986-10-30 00:00:00 NR 3.70000 172.500 main 1877 1817 __________O___ -1 3.70000 172.500 0 17 268
1986302N05178 1986 105 WP MM HERBERT 1986-10-30 03:00:00 NR 3.70395 171.651 main 1817 1761 __________P___ -1 3.70395 171.651 0 17 272
1986302N05178 1986 105 WP MM HERBERT 1986-10-30 06:00:00 NR 3.76716 170.770 main 1761 1708 __________P___ -1 3.76716 170.770 0 18 276
1986302N05178 1986 105 WP MM HERBERT 1986-10-30 09:00:00 NR 3.89677 169.879 main 1708 1670 __________P___ -1 3.89677 169.879 0 18 281
1986302N05178 1986 105 WP MM HERBERT 1986-10-30 12:00:00 NR 4.10000 169.000 main 1670 1648 __________O___ -1 4.10000 169.000 0 18 286
1986302N05178 1986 105 WP MM HERBERT 1986-10-30 15:00:00 NR 4.38997 168.161 main 1652 1640 __________P___ -1 4.38997 168.161 0 18 291
1986302N05178 1986 105 WP MM HERBERT 1986-10-30 18:00:00 NR 4.74702 167.335 main 1635 1635 __________P___ -1 4.74702 167.335 0 18 294
1986302N05178 1986 105 WP MM HERBERT 1986-10-30 21:00:00 NR 5.13057 166.517 main 1639 1639 __________P___ -1 5.13057 166.517 0 18 295
1986302N05178 1986 105 WP MM HERBERT 1986-10-31 00:00:00 NR 5.50000 165.700 main 1649 1646 __________O___ -1 5.50000 165.700 0 18 292
1986302N05178 1986 105 WP MM HERBERT 1986-10-31 03:00:00 NR 5.80440 164.867 main 1651 1641 __________P___ -1 5.80440 164.867 0 18 290
1986302N05178 1986 105 WP MM HERBERT 1986-10-31 06:00:00 NR 6.08712 164.035 main 1642 1615 __________P___ -1 6.08712 164.035 0 17 288
1986302N05178 1986 105 WP MM HERBERT 1986-10-31 09:00:00 NR 6.35127 163.210 main 1618 1588 __________P___ -1 6.35127 163.210 0 17 288
1986302N05178 1986 105 WP MM HERBERT 1986-10-31 12:00:00 NR 6.60000 162.400 main 1588 1554 __________O___ -1 6.60000 162.400 0 17 287
1986302N05178 1986 105 WP MM HERBERT 1986-10-31 15:00:00 NR 6.83884 161.614 main 1547 1517 __________P___ -1 6.83884 161.614 0 16 287
1986302N05178 1986 105 WP MM HERBERT 1986-10-31 18:00:00 NR 7.06426 160.842 main 1519 1488 __________P___ -1 7.06426 160.842 0 16 286
1986302N05178 1986 105 WP MM HERBERT 1986-10-31 21:00:00 NR 7.28257 160.074 main 1490 1456 __________P___ -1 7.28257 160.074 0 16 286
1986302N05178 1986 105 WP MM HERBERT 1986-11-01 00:00:00 NR 7.50000 159.300 main 1456 1434 __________O___ -1 7.50000 159.300 0 16 286
1986302N05178 1986 105 WP MM HERBERT 1986-11-01 03:00:00 NR 7.73664 158.519 main 1428 1407 __________P___ -1 7.73664 158.519 0 16 287
1986302N05178 1986 105 WP MM HERBERT 1986-11-01 06:00:00 NR 7.97170 157.730 main 1411 1390 __________P___ -1 7.97170 157.730 0 16 286
1986302N05178 1986 105 WP MM HERBERT 1986-11-01 09:00:00 NR 8.19592 156.925 main 1390 1370 __________P___ -1 8.19592 156.925 0 17 285
1986302N05178 1986 105 WP MM HERBERT 1986-11-01 12:00:00 NR 8.40000 156.100 main 1371 1354 __________O___ -1 8.40000 156.100 0 17 284
1986302N05178 1986 105 WP MM HERBERT 1986-11-01 15:00:00 NR 8.59551 155.251 main 1357 1338 __________P___ -1 8.59551 155.251 0 17 282
1986302N05178 1986 105 WP MM HERBERT 1986-11-01 18:00:00 NR 8.76688 154.380 main 1345 1330 __________P___ -1 8.76688 154.380 0 18 280
1986302N05178 1986 105 WP MM HERBERT 1986-11-01 21:00:00 NR 8.90480 153.494 main 1331 1322 __________P___ -1 8.90480 153.494 0 18 278
1986302N05178 1986 105 WP MM HERBERT 1986-11-02 00:00:00 NR 9.00000 152.600 main 1324 1314 __________O___ -1 9.00000 152.600 0 18 274
1986302N05178 1986 105 WP MM HERBERT 1986-11-02 03:00:00 NR 9.02644 151.698 main 1314 1299 __________P___ -1 9.02644 151.698 0 18 270
1986302N05178 1986 105 WP MM HERBERT 1986-11-02 06:00:00 NR 9.01445 150.791 main 1299 1274 __________P___ -1 9.01445 150.791 0 18 269
1986302N05178 1986 105 WP MM HERBERT 1986-11-02 09:00:00 NR 8.99521 149.889 main 1274 1256 __________P___ -1 8.99521 149.889 0 18 270
1986302N05178 1986 105 WP MM HERBERT 1986-11-02 12:00:00 NR 9.00000 149.000 main 1256 1249 __________O___ -1 9.00000 149.000 0 17 273
1986302N05178 1986 105 WP MM HERBERT 1986-11-02 15:00:00 NR 9.08693 148.124 main 1257 1255 __________P___ -1 9.08693 148.124 0 17 277
1986302N05178 1986 105 WP MM HERBERT 1986-11-02 18:00:00 NR 9.19930 147.263 main 1266 1266 __________P___ -1 9.19930 147.263 0 17 278
1986302N05178 1986 105 WP MM HERBERT 1986-11-02 21:00:00 NR 9.31201 146.421 main 1277 1277 __________P___ -1 9.31201 146.421 0 17 277
1986302N05178 1986 105 WP MM HERBERT 1986-11-03 00:00:00 NR 9.40000 145.600 main 1293 1293 __________O___ -1 9.40000 145.600 0 16 274
1986302N05178 1986 105 WP MM HERBERT 1986-11-03 03:00:00 NR 9.41181 144.799 main 1303 1303 __________P___ -1 9.41181 144.799 0 16 270
1986302N05178 1986 105 WP MM HERBERT 1986-11-03 06:00:00 NR 9.39912 144.019 main 1320 1320 __________P___ -1 9.39912 144.019 0 15 269
1986302N05178 1986 105 WP MM HERBERT 1986-11-03 09:00:00 NR 9.38688 143.255 main 1339 1321 __________P___ -1 9.38688 143.255 0 15 270
1986302N05178 1986 105 WP MM HERBERT 1986-11-03 12:00:00 NR 9.40000 142.500 main 1321 1295 __________O___ -1 9.40000 142.500 1 25 15 272
1986302N05178 1986 105 WP MM HERBERT 1986-11-03 15:00:00 NR 9.44627 141.747 main 1292 1281 __________P___ -1 9.44627 141.747 1 25 15 275
1986302N05178 1986 105 WP MM HERBERT 1986-11-03 18:00:00 NR 9.52418 141.000 main 1281 1263 __________P___ -1 9.52418 141.000 1 25 15 277
1986302N05178 1986 105 WP MM HERBERT 1986-11-03 21:00:00 NR 9.64001 140.253 main 1263 1249 __________P___ -1 9.64001 140.253 1 25 15 281
1986302N05178 1986 105 WP MM HERBERT 1986-11-04 00:00:00 NR 9.80000 139.500 main 1252 1242 __________O___ -1 9.80000 139.500 1 25 15 284
1986302N05178 1986 105 WP MM HERBERT 1986-11-04 03:00:00 NR 10.0146 138.732 main 1247 1244 __________P___ -1 10.0146 138.732 1 25 16 287
1986302N05178 1986 105 WP MM HERBERT 1986-11-04 06:00:00 NR 10.2694 137.958 main 1260 1206 __________P___ -1 10.2694 137.958 1 25 16 289
1986302N05178 1986 105 WP MM HERBERT 1986-11-04 09:00:00 NR 10.5395 137.179 main 1206 1129 __________P___ -1 10.5395 137.179 1 25 16 289
1986302N05178 1986 105 WP MM HERBERT 1986-11-04 12:00:00 NR 10.8000 136.400 main 1129 1048 __________O___ -1 10.8000 136.400 1 25 16 288
1986302N05178 1986 105 WP MM HERBERT 1986-11-04 15:00:00 NR 11.0347 135.589 main 1048 968 __________P___ -1 11.0347 135.589 1 25 17 286
1986302N05178 1986 105 WP MM HERBERT 1986-11-04 18:00:00 NR 11.2526 134.783 main 970 899 __________P___ -1 11.2526 134.783 1 25 16 285
1986302N05178 1986 105 WP MM HERBERT 1986-11-04 21:00:00 NR 11.4442 134.011 main 888 821 __________P___ -1 11.4442 134.011 1 25 15 283
1986302N05178 1986 105 WP MM HERBERT 1986-11-05 00:00:00 NR 11.6000 133.300 main 821 756 __________O___ -1 11.6000 133.300 1 25 13 280
1986302N05178 1986 105 WP MM HERBERT 1986-11-05 03:00:00 NR 11.6815 132.680 main 756 702 __________P___ -1 11.6815 132.680 1 25 12 277
1986302N05178 1986 105 WP MM HERBERT 1986-11-05 06:00:00 NR 11.7338 132.124 main 691 638 __________P___ -1 11.7338 132.124 1 25 11 276
1986302N05178 1986 105 WP MM HERBERT 1986-11-05 09:00:00 NR 11.7942 131.605 main 638 586 __________P___ -1 11.7942 131.605 1 25 10 279
1986302N05178 1986 105 WP MM HERBERT 1986-11-05 12:00:00 NR 11.9000 131.100 main 586 537 __________O___ -1 11.9000 131.100 1 25 11 288
1986302N05178 1986 105 WP MM HERBERT 1986-11-05 15:00:00 NR 12.1113 130.580 main 537 490 __________P___ -1 12.1113 130.580 1 25 11 295
1986302N05178 1986 105 WP MM HERBERT 1986-11-05 18:00:00 NR 12.3692 130.065 main 494 447 __________P___ -1 12.3692 130.065 1 25 11 298
1986302N05178 1986 105 WP MM HERBERT 1986-11-05 21:00:00 NR 12.6425 129.543 main 436 341 __________P___ -1 12.6425 129.543 1 25 15 282
1986302N05178 1986 105 WP MM HERBERT 1986-11-06 00:00:00 TS 12.6833 128.583 1004 tokyo main 341 266 _OO_______O___ -1 12.0000 128.000 2 1004 0 0 0 12.5000 127.500 1 23 1004 12.9000 129.000 1 25 17 273
1986302N05178 1986 105 WP MM HERBERT 1986-11-06 03:00:00 TS 12.7170 127.853 main 266 193 _PP_______P___ -1 12.0002 127.500 2 1004 0 0 12.6026 127.038 1 26 1003 13.1327 128.438 1 27 14 273
1986302N05178 1986 105 WP MM HERBERT 1986-11-06 06:00:00 TS 12.7457 127.191 1004 tokyo main 193 137 _OO_______P___ -1 12.0000 127.000 2 1004 0 0 0 12.7000 126.500 1 29 1002 13.3393 127.853 1 30 13 272
1986302N05178 1986 105 WP MM HERBERT 1986-11-06 09:00:00 TS 12.7604 126.526 main 127 79 _PP_______P___ -1 11.9999 126.500 2 1004 0 0 12.7800 125.838 1 29 1002 13.5013 127.241 1 32 13 272
1986302N05178 1986 105 WP MM HERBERT 1986-11-06 12:00:00 TS 12.8000 125.900 1004 tokyo main 79 35 _OO_______O___ -1 12.0000 126.000 2 1004 0 0 0 12.8000 125.100 1 29 1002 13.6000 126.600 2 35 13 271
1986302N05178 1986 105 WP MM HERBERT 1986-11-06 15:00:00 TS 12.7754 125.222 main 33 22 _PP_______P___ -1 11.9999 125.500 2 1004 0 0 12.7154 124.275 1 29 1002 13.6111 125.891 2 32 13 266
1986302N05178 1986 105 WP MM HERBERT 1986-11-06 18:00:00 TS 12.7202 124.587 1004 tokyo main 22 0 _OO_______P___ -1 12.0000 125.000 2 1004 0 0 0 12.6000 123.600 1 29 1002 13.5607 125.161 2 30 11 264
1986302N05178 1986 105 WP MM HERBERT 1986-11-06 21:00:00 TS 12.6689 124.102 main 0 0 _PP_______P___ -1 11.9999 124.500 2 1004 0 0 12.5270 123.355 1 29 1002 13.4799 124.451 2 27 9 264
1986302N05178 1986 105 WP MM HERBERT 1986-11-07 00:00:00 TS 12.6333 123.667 1004 tokyo main 15 11 _OO_______O___ -1 12.0000 124.000 2 1004 0 0 0 12.5000 123.200 1 29 1002 13.4000 123.800 1 25 9 268
1986302N05178 1986 105 WP MM HERBERT 1986-11-07 03:00:00 TS 12.6353 123.177 main 15 15 _PP_______P___ -1 11.9999 123.500 2 1003 0 0 12.5352 122.765 1 29 1001 13.3708 123.265 1 25 9 271
1986302N05178 1986 105 WP MM HERBERT 1986-11-07 06:00:00 TS 12.6496 122.697 1002 tokyo main 66 66 _OO_______P___ -1 12.0000 123.000 2 1002 0 0 0 12.6000 122.300 1 29 1000 13.3487 122.790 1 25 9 271
1986302N05178 1986 105 WP MM HERBERT 1986-11-07 09:00:00 TS 12.6490 122.284 main 74 34 _PP_______P___ -1 11.9624 122.500 2 1002 0 0 12.6573 122.007 1 29 1000 13.3273 122.346 1 25 8 271
1986302N05178 1986 105 WP MM HERBERT 1986-11-07 12:00:00 TS 12.6667 121.867 1002 tokyo main 34 0 _OO_______O___ -1 12.0000 122.000 2 1002 0 0 0 12.7000 121.700 1 29 1000 13.3000 121.900 1 25 9 274
1986302N05178 1986 105 WP MM HERBERT 1986-11-07 15:00:00 TS 12.7121 121.377 main 0 0 _PP_______P___ -1 12.2348 121.523 2 1002 0 0 12.6851 121.215 1 29 1000 13.2165 121.394 1 27 10 278
1986302N05178 1986 105 WP MM HERBERT 1986-11-07 18:00:00 TS 12.8100 120.864 1002 tokyo main 0 0 OOO_______P___ jtwc_wp WP221986 13.2000 120.900 30 -1 12.5000 121.000 2 1002 0 0 0 12.7000 120.700 1 29 1000 13.1325 120.884 1 30 10 279
1986302N05178 1986 105 WP MM HERBERT 1986-11-07 21:00:00 TS 12.8700 120.338 main 39 39 PPP_______P___ WP221986 13.1152 120.392 32 -1 12.6153 120.327 2 999 0 0 12.7899 120.277 1 29 999 13.0822 120.382 1 32 10 279
1986302N05178 1986 105 WP MM HERBERT 1986-11-08 00:00:00 TS 12.9667 119.847 996 tokyo main 70 70 OOO_______O___ jtwc_wp WP221986 13.1000 119.900 35 0 12.7000 119.700 2 996 0 0 0 13.0000 119.900 1 29 998 13.1000 119.900 2 35 9 289
1986302N05178 1986 105 WP MM HERBERT 1986-11-08 03:00:00 TS 13.1663 119.430 main 99 99 PPP_______P___ WP221986 13.2049 119.435 37 0 12.8422 119.305 2 993 0 0 13.3699 119.543 1 33 996 13.2482 119.438 2 37 9 300
1986302N05178 1986 105 WP MM HERBERT 1986-11-08 06:00:00 TS 13.4146 119.053 35 990 tokyo main 129 129 OOOO______P___ jtwc_wp WP221986 13.4000 119.000 40 0 13.0000 119.000 3 35 990 0 9 30 30 0 13.8000 119.200 2 38 995 13.4000 119.100 TD 30 996 13.4623 118.999 2 40 9 305
1986302N05178 1986 105 WP MM HERBERT 1986-11-08 09:00:00 TS 13.6786 118.675 main 176 176 PPPP______P___ WP221986 13.6500 118.578 42 0 13.1500 118.650 3 37 990 0 9 65 65 14.1723 118.872 2 38 995 13.7726 118.705 TD 30 994 13.6952 118.585 2 42 9 305
1986302N05178 1986 105 WP MM HERBERT 1986-11-08 12:00:00 TS 13.9316 118.300 40 990 tokyo main 218 213 OOOO______O___ jtwc_wp WP221986 13.9000 118.200 45 0 13.3000 118.300 3 40 990 0 9 100 100 0 14.5000 118.500 2 38 995 14.1000 118.300 TD 30 992 13.9000 118.200 2 45 9 303
1986302N05178 1986 105 WP MM HERBERT 1986-11-08 15:00:00 TS 14.1483 117.920 main 249 246 PPPP______P___ WP221986 14.0874 117.892 47 0 13.4425 117.950 3 40 987 0 9 100 100 14.8400 118.023 2 43 993 14.3325 117.885 TD 32 991 14.0390 117.850 2 47 8 295
1986302N05178 1986 105 WP MM HERBERT 1986-11-08 18:00:00 TS 14.2679 117.545 40 985 tokyo main 285 285 OOOO______P___ jtwc_wp WP221986 14.2000 117.600 50 0 13.6000 117.600 3 40 985 0 9 100 100 0 15.0000 117.500 3 48 992 14.4000 117.500 TS 35 990 14.1395 117.527 2 50 7 280
1986302N05178 1986 105 WP MM HERBERT 1986-11-08 21:00:00 TS 14.2711 117.168 main 315 315 PPPP______P___ WP221986 14.2375 117.257 52 0 13.8375 117.243 3 45 985 0 9 125 125 14.8401 116.962 3 48 991 14.2450 117.162 TS 37 988 14.1953 117.216 2 52 7 263
1986302N05178 1986 105 WP MM HERBERT 1986-11-09 00:00:00 TS 14.1800 116.820 50 985 tokyo main 359 359 OOOO______O___ jtwc_wp WP221986 14.2000 116.900 55 0 14.0000 116.900 4 50 985 0 9 150 150 0 14.5000 116.500 3 48 990 14.0000 116.900 TS 40 987 14.2000 116.900 2 55 7 249
1986302N05178 1986 105 WP MM HERBERT 1986-11-09 03:00:00 TS 14.0328 116.523 main 398 398 PPPP______P___ WP221986 14.1149 116.550 57 0 13.9599 116.592 4 52 987 0 9 175 175 14.1124 116.175 3 53 987 13.8349 116.735 TS 42 986 14.1420 116.561 2 56 6 240
1986302N05178 1986 105 WP MM HERBERT 1986-11-09 06:00:00 TS 13.8675 116.263 55 990 tokyo main 421 421 OOOO______P___ jtwc_wp WP221986 14.0000 116.200 60 0 13.8000 116.300 4 55 990 9 40 40 9 200 200 0 13.8000 116.000 3 58 985 13.7000 116.600 TS 45 985 14.0373 116.215 2 57 6 238
1986302N05178 1986 105 WP MM HERBERT 1986-11-09 09:00:00 TS 13.7447 116.039 main 458 458 PPPP______P___ WP221986 13.8925 115.850 60 0 13.5774 116.007 4 55 990 9 40 40 9 200 200 13.7548 116.030 3 58 985 13.5849 116.445 TS 45 986 13.9139 115.861 2 58 5 246
1986302N05178 1986 105 WP MM HERBERT 1986-11-09 12:00:00 TS 13.6600 115.780 55 990 tokyo main 479 479 OOOO______O___ jtwc_wp WP221986 13.8000 115.500 60 0 13.4000 115.700 4 55 990 9 40 40 9 200 200 0 13.8000 116.000 3 58 985 13.5000 116.200 TS 45 988 13.8000 115.500 2 60 6 257
1986302N05178 1986 105 WP MM HERBERT 1986-11-09 15:00:00 TS 13.6090 115.413 main 511 511 PPPP______P___ WP221986 13.7424 115.158 60 0 13.4050 115.358 4 55 987 9 40 40 9 200 200 13.7502 115.610 3 53 986 13.4200 115.795 TS 45 990 13.7272 115.144 2 58 8 265
1986302N05178 1986 105 WP MM HERBERT 1986-11-09 18:00:00 TS 13.5939 114.996 55 985 tokyo main 548 548 OOOO______P___ jtwc_wp WP221986 13.7000 114.800 60 0 13.5000 115.000 4 55 985 9 40 40 9 200 200 0 13.7000 115.100 3 48 988 13.4000 115.300 TS 45 992 13.6696 114.780 2 57 8 270
1986302N05178 1986 105 WP MM HERBERT 1986-11-09 21:00:00 TS 13.6034 114.587 main 557 514 PPPP______P___ WP221986 13.6424 114.415 57 0 13.5924 114.658 4 57 985 9 40 40 9 200 200 13.6850 114.678 3 48 988 13.4701 114.785 TS 45 992 13.6272 114.401 2 56 8 273
1986302N05178 1986 105 WP MM HERBERT 1986-11-10 00:00:00 TS 13.6400 114.180 60 985 tokyo main 514 474 OOOO______O___ jtwc_wp WP221986 13.6000 114.000 55 0 13.7000 114.300 4 60 985 9 40 40 9 200 200 0 13.7000 114.300 3 48 988 13.6000 114.300 TS 45 992 13.6000 114.000 2 55 8 277
1986302N05178 1986 105 WP MM HERBERT 1986-11-10 03:00:00 TS 13.6955 113.786 main 474 431 PPPP______P___ WP221986 13.5925 113.558 55 0 13.8075 113.908 4 60 985 9 45 45 9 200 200 13.7498 114.000 3 48 988 13.7498 113.927 TS 45 991 13.5778 113.539 2 53 8 278
1986302N05178 1986 105 WP MM HERBERT 1986-11-10 06:00:00 TS 13.7541 113.393 60 985 tokyo main 434 392 OOOO______P___ jtwc_wp WP221986 13.6000 113.100 55 0 13.9000 113.500 4 60 985 9 50 50 9 200 200 0 13.8000 113.700 3 48 988 13.9000 113.600 TS 45 990 13.5705 113.063 2 52 8 278
1986302N05178 1986 105 WP MM HERBERT 1986-11-10 09:00:00 TS 13.8050 112.979 main 392 350 PPPP______P___ WP221986 13.5926 112.620 52 0 13.9874 113.100 4 60 987 9 50 50 9 200 200 13.8075 113.315 3 48 988 14.0599 113.258 TS 45 990 13.5778 112.605 2 51 8 275
1986302N05178 1986 105 WP MM HERBERT 1986-11-10 12:00:00 TS 13.8200 112.580 60 990 tokyo main 350 309 OOOO______O___ jtwc_wp WP221986 13.6000 112.200 50 0 14.0000 112.700 4 60 990 9 50 50 9 200 200 0 13.8000 112.900 3 48 988 14.1000 112.900 TS 45 990 13.6000 112.200 2 50 7 267
1986302N05178 1986 105 WP MM HERBERT 1986-11-10 15:00:00 TS 13.7643 112.226 main 309 274 PPPP______P___ WP221986 13.6424 111.920 47 0 13.8724 112.307 4 52 990 9 9 175 175 13.8000 112.493 3 48 988 13.8799 112.515 TS 42 993 13.6270 111.897 2 48 7 259
1986302N05178 1986 105 WP MM HERBERT 1986-11-10 18:00:00 TS 13.6939 111.889 45 990 tokyo main 274 244 OOOO______P___ jtwc_wp WP221986 13.7000 111.700 45 0 13.7000 111.900 3 45 990 0 9 150 150 0 13.8000 112.100 3 48 988 13.6000 112.100 TS 40 996 13.6694 111.647 2 47 7 260
1986302N05178 1986 105 WP MM HERBERT 1986-11-10 21:00:00 TS 13.6514 111.536 main 234 204 PPPP______P___ WP221986 13.7500 111.457 45 0 13.5551 111.420 3 42 990 0 9 125 125 13.7999 111.743 3 43 988 13.4251 111.635 TS 37 997 13.7271 111.425 2 46 7 267
1986302N05178 1986 105 WP MM HERBERT 1986-11-11 00:00:00 TS 13.6600 111.200 40 990 tokyo main 204 173 OOOO______O___ jtwc_wp WP221986 13.8000 111.200 45 0 13.5000 111.000 3 40 990 0 9 100 100 0 13.8000 111.400 2 38 988 13.4000 111.200 TS 35 999 13.8000 111.200 2 45 6 279
1986302N05178 1986 105 WP MM HERBERT 1986-11-11 03:00:00 TS 13.7479 110.907 main 173 140 PPPP______P___ WP221986 13.8350 110.900 42 0 13.6123 110.770 3 40 991 0 9 100 100 13.7925 111.035 2 38 988 13.6124 110.878 TS 32 999 13.8872 110.951 2 42 6 291
1986302N05178 1986 105 WP MM HERBERT 1986-11-11 06:00:00 TS 13.8714 110.634 40 992 tokyo main 140 119 OOOO______P___ jtwc_wp WP221986 13.9000 110.600 40 0 13.8000 110.600 3 40 992 0 9 100 100 0 13.8000 110.700 2 38 988 13.9000 110.600 TD 30 1000 13.9855 110.680 2 40 6 295
1986302N05178 1986 105 WP MM HERBERT 1986-11-11 09:00:00 TS 13.9878 110.366 main 119 89 PPPP______P___ WP221986 14.0424 110.358 37 0 13.9575 110.358 3 40 992 0 9 100 100 13.8274 110.442 2 33 989 14.0725 110.292 TD 30 1000 14.0911 110.394 2 37 6 294
1986302N05178 1986 105 WP MM HERBERT 1986-11-11 12:00:00 TS 14.1000 110.100 40 992 tokyo main 89 63 OOOO______O___ jtwc_wp WP221986 14.2000 110.100 35 0 14.1000 110.100 3 40 992 0 9 100 100 0 13.9000 110.200 1 29 990 14.2000 110.000 TD 30 1000 14.2000 110.100 2 35 6 292
1986302N05178 1986 105 WP MM HERBERT 1986-11-11 15:00:00 TS 14.2021 109.827 main 63 48 PPPP__________ WP221986 14.3152 109.773 32 -1 14.2074 109.857 3 40 993 0 9 100 100 14.0350 109.908 1 26 995 14.3074 109.742 TD 30 1000 2 6 292
1986302N05178 1986 105 WP MM HERBERT 1986-11-11 18:00:00 TS 14.3091 109.555 40 994 tokyo main 48 21 OOOO__________ jtwc_wp WP221986 14.4000 109.400 30 -1 14.3000 109.600 3 40 994 0 9 100 100 0 14.2000 109.600 1 23 1000 14.4000 109.500 TD 30 1001 2 6 292
1986302N05178 1986 105 WP MM HERBERT 1986-11-11 21:00:00 TS 14.4132 109.291 main 21 0 _PPP__________ WP221986 -1 14.4000 109.307 3 998 0 9 14.3551 109.298 1 21 1001 14.4976 109.253 TD 30 1002 2 6 291
1986302N05178 1986 105 WP MM HERBERT 1986-11-12 00:00:00 TS 14.5200 109.000 1002 tokyo main 0 0 _OOO__________ -1 14.5000 109.000 2 1002 0 0 0 14.5000 109.000 0 19 1002 14.6000 109.000 TD 30 1003 6 288
1986302N05178 1986 105 WP MM HERBERT 1986-11-12 03:00:00 TS 14.6001 108.698 main 0 0 _P____________ -1 14.6001 108.698 2 1005 0 0 0 TD 6 287
1986302N05178 1986 105 WP MM HERBERT 1986-11-12 06:00:00 TS 14.7000 108.400 1008 tokyo main 0 _O____________ -1 14.7000 108.400 2 1008 0 0 0 6 289

Digital Typhoon Data and Search

About IBTrACS Database

This database is a web-friendly format of International Best Track Archive for Climate Stewardship (IBTrACS), a global best track data archive curated by NOAA dating back to 1842.

Updated: 2021-12-01